Terminal Aerodrome Forecast
Issued by NWS

Home | Current Version | Previous Version | Text Only | Print | Product List | Glossary On
Versions: 1 2 3 4 5 6 7 8 9 10 11 12 13 14 15 16 17 18 19
000
FTAK31 PAJN 170500
TAFAWG
TAF
PAWG 170520Z 1706/1806 00000KT P6SM VCSH FEW020 SCT045 OVC070
     FM170900 00000KT 1SM BR VCSH BKN002 OVC060
     FM172000 32005KT P6SM VCFG SCT005 BKN050
     FM180000 VRB03KT P6SM BKN050 BKN150
      AMD LTD TO CLD VIS AND WIND 1706/1715=

USA.gov is the U.S. government's official web portal to all federal, state and local government web resources and services.